Collinsville, Texas
Current Conditions -  °F | °C
As of 2:35 PM on Friday 28 Nov 2014 (Local Time) from KGYI Reporting Station
Clear Clear  
Wind Chill: 68°   Ceiling: Unl
Heat Index: 68°   Visibility: 10mi
Dew Point: 51°   Wind: 22mph
Humidity: 53%   Direction: 180°S
Pressure: 30.04"   Gusts: 26mph
Location:  33.56°N, 96.91°W
Report Text: KGYI 282035Z AUTO 18019G23KT 10SM CLR 20/10 A3004 RMK AO2 T02010103
Loading
Personal Weather Stations






























Interactive Weather Map New forecast layout! Learn more

10-Day Weather Forecast

Advertisements
Track Severe Weather on mobile